Latest Coastal Weather Observations for Flinders Island Airport

IDV60701

Issued at 3:41 pm EDT Thursday 11 February 2016 (issued every 10 minutes, with the page automatically refreshed every 10 minutes)

About coastal observations | Map of coastal stations | Coastal observations for VIC | Marine services | Other Formats
Station Details ID: 099005 Name: FLINDERS ISLAND AIRPORT Lat: -40.09 Lon: 148.00 Height: 9.0 m
Data from the previous 72 hours. | See also: Recent months at Flinders Island Airport
Date/Time
EDT
Temp

°C
Wind Pressure Rain
since 9am
mm
Weather Cloud Vis
km
Sea
Height
m
Swell
Dir
 
Speed
knots
Gust
knots
hPa Trend Height
m
Period
s
Dir
11/03:30pm 23.6 SE 9 17 1014.9 - 0.0 - Partly cloudy 10 - - - -
11/03:00pm 24.1 SE 9 15 1015.0 - 0.0 - Cloudy 10 - - - -
11/02:30pm 23.4 ESE 8 15 1015.0 - 0.0 - Partly cloudy 10 - - - -
11/02:00pm 22.6 ESE 9 15 1015.2 - 0.0 - Partly cloudy 10 - - - -
11/01:30pm 22.9 ESE 8 16 1015.2 - 0.0 - Cloudy 10 - - - -
11/01:00pm 22.5 ESE 8 14 1015.2 - 0.0 - Partly cloudy 10 - - - -
11/12:30pm 23.0 S 10 16 1015.3 - 0.0 - Partly cloudy 10 - - - -
11/12:00pm 21.8 S 10 13 1015.7 - 0.0 - Cloudy 10 - - - -
11/11:30am 21.3 S 11 15 1015.9 - 0.0 - Partly cloudy 10 - - - -
11/11:00am 21.7 SSW 13 15 1015.9 - 0.0 - Partly cloudy 10 - - - -
11/10:30am 21.0 S 10 15 1015.9 - 0.0 - - 10 - - - -
11/10:00am 21.1 S 11 16 1015.8 - 0.0 - Partly cloudy 10 - - - -
11/09:30am 20.0 S 10 15 1015.7 - 0.0 - Partly cloudy 10 - - - -
11/09:00am 20.2 SSE 7 11 1015.4 - 0.0 - Mostly cloudy 10 - - - -
11/08:30am 20.3 SSW 8 10 1015.1 - 0.0 - Partly cloudy 10 - - - -
11/08:00am 19.4 S 6 9 1014.8 - 0.0 - - 10 - - - -
11/07:30am 18.3 SE 3 7 1014.4 - 0.0 - - 10 - - - -
11/07:00am 18.6 SSW 12 14 1013.8 - 0.0 - - 10 - - - -
11/06:30am 18.6 SSW 10 11 1013.2 - 0.0 - - 10 - - - -
11/06:00am 18.8 SW 12 15 1012.7 - 0.0 - - 10 - - - -
11/05:30am 18.5 WSW 15 18 1012.4 - 0.0 - Partly cloudy 10 - - - -
11/05:00am 18.8 WSW 14 17 1012.4 - 0.0 - Partly cloudy 10 - - - -
11/04:30am 18.8 W 15 19 1012.3 - 0.0 - - 10 - - - -
11/04:00am 18.5 W 13 16 1012.4 - 0.0 - Partly cloudy 10 - - - -
11/03:48am 18.6 W 14 17 1012.4 - 0.0 - Partly cloudy 10 - - - -
11/03:30am 18.7 W 16 19 1012.5 - 0.0 - Partly cloudy 10 - - - -
11/03:27am 18.6 W 15 19 1012.5 - 0.0 - Partly cloudy 10 - - - -
11/03:26am 18.6 W 15 19 1012.6 - 0.0 - Partly cloudy 10 - - - -
11/03:01am 18.8 W 16 19 1012.8 - 0.0 - Partly cloudy 10 - - - -
11/03:00am 18.8 W 16 19 1012.8 - 0.0 - Cloudy 10 - - - -
11/02:59am 18.8 W 16 19 1012.8 - 0.0 - Partly cloudy 10 - - - -
11/02:40am 18.8 W 16 19 1012.8 - 0.0 - Partly cloudy 10 - - - -
11/02:30am 18.8 W 15 19 1013.0 - 0.0 - Partly cloudy 10 - - - -
11/02:20am 19.0 W 16 20 1013.0 - 0.0 - Partly cloudy 10 - - - -
11/02:00am 18.9 W 17 22 1013.1 - 0.0 - Partly cloudy 10 - - - -
11/01:30am 19.0 W 18 21 1013.2 - 0.0 - Partly cloudy 10 - - - -
11/01:11am 19.0 W 17 21 1013.2 - 0.0 - Partly cloudy 10 - - - -
11/01:00am 18.9 W 18 21 1013.3 - 0.0 - Partly cloudy 10 - - - -
11/12:30am 19.1 W 19 22 1013.2 - 0.0 - - 9 - - - -
11/12:00am 19.1 W 19 22 1013.3 - 0.0 - - 10 - - - -
 
Date/Time
EDT
Temp

°C
Wind Pressure Rain
since 9am
mm
Weather Cloud Vis
km
Sea
Height
m
Swell
Dir
 
Speed
knots
Gust
knots
hPa Trend Height
m
Period
s
Dir
10/11:30pm 19.2 W 19 21 1013.2 - 0.0 - - 9 - - - -
10/11:00pm 19.2 W 17 20 1013.2 - 0.0 - - 7 - - - -
10/10:30pm 19.0 W 16 19 1013.4 - 0.0 - - 10 - - - -
10/10:00pm 18.9 W 15 19 1013.5 - 0.0 - Partly cloudy 10 - - - -
10/09:30pm 18.9 W 16 21 1013.4 - 0.0 - - 10 - - - -
10/09:00pm 18.9 W 14 19 1013.1 - 0.0 - - 10 - - - -
10/08:30pm 19.0 W 16 20 1012.9 - 0.0 - Partly cloudy 10 - - - -
10/08:15pm 19.1 W 16 20 1012.9 - 0.0 - Partly cloudy 10 - - - -
10/08:00pm 19.3 W 17 22 1012.8 - 0.0 - Partly cloudy 10 - - - -
10/07:30pm 19.6 W 17 21 1012.6 - 0.0 - Partly cloudy 10 - - - -
10/07:00pm 19.9 W 17 21 1012.4 - 0.0 - Partly cloudy 10 - - - -
10/06:30pm 20.0 W 17 20 1012.3 - 0.0 - Partly cloudy 10 - - - -
10/06:00pm 20.2 W 17 20 1012.2 - 0.0 - Partly cloudy 10 - - - -
10/05:54pm 20.3 W 17 21 1012.2 - 0.0 - Partly cloudy 10 - - - -
10/05:30pm 20.5 W 17 21 1012.3 - 0.0 - Partly cloudy 10 - - - -
10/05:12pm 20.4 WSW 17 21 1012.3 - 0.0 - Partly cloudy 10 - - - -
10/05:00pm 21.1 WSW 16 20 1012.2 - 0.0 - Partly cloudy 10 - - - -
10/04:30pm 21.2 W 17 20 1012.2 - 0.0 - - 9 - - - -
10/04:05pm 21.4 W 15 17 1012.2 - 0.0 - - 9 - - - -
10/04:00pm 21.0 W 15 17 1012.2 - 0.0 - - 8 - - - -
10/03:42pm 21.2 W 16 18 1012.2 - 0.0 - - 5 - - - -
10/03:30pm 21.4 W 14 17 1012.2 - 0.0 - - 6 - - - -
10/03:00pm 21.8 W 14 18 1012.4 - 0.0 - - 8 - - - -
10/02:30pm 21.4 WNW 13 17 1012.7 - 0.0 - - 10 - - - -
10/02:00pm 20.5 W 10 15 1012.9 - 0.0 - - 10 - - - -
10/01:35pm 21.1 W 13 17 1013.1 - 0.0 - Partly cloudy 10 - - - -
10/01:30pm 20.9 W 13 17 1013.1 - 0.0 - Partly cloudy 10 - - - -
10/01:00pm 20.3 W 12 15 1013.2 - 0.0 - Partly cloudy 8 - - - -
10/12:48pm 20.3 WSW 14 17 1013.3 - 0.0 - Partly cloudy 10 - - - -
10/12:30pm 20.1 W 14 17 1013.6 - 0.0 - Partly cloudy 10 - - - -
10/12:00pm 20.2 W 15 17 1013.8 - 0.0 - Cloudy 8 - - - -
10/11:37am 20.3 WSW 16 19 1013.9 - 0.0 - Partly cloudy 7 - - - -
10/11:30am 20.3 W 16 18 1013.9 - 0.0 - Partly cloudy 7 - - - -
10/11:23am 20.3 WSW 16 19 1014.0 - 0.0 - Partly cloudy 8 - - - -
10/11:17am 20.4 WSW 15 18 1014.0 - 0.0 - Partly cloudy 8 - - - -
10/11:00am 20.5 W 15 17 1014.0 - 0.0 - Partly cloudy 7 - - - -
10/10:36am 20.7 W 14 16 1013.9 - 0.0 - Partly cloudy 7 - - - -
10/10:30am 20.6 W 12 16 1013.9 - 0.0 - Partly cloudy 7 - - - -
10/10:00am 20.8 W 10 13 1013.6 - 0.0 - Partly cloudy 7 - - - -
10/09:57am 20.8 WNW 10 13 1013.6 - 0.0 - Partly cloudy 8 - - - -
10/09:45am 20.5 WNW 10 14 1013.7 - 0.0 - Partly cloudy 8 - - - -
10/09:30am 20.1 WNW 10 13 1013.7 - 0.0 - Partly cloudy 5 - - - -
10/09:29am 20.1 WNW 9 13 1013.7 - 0.0 - Partly cloudy 5 - - - -
10/09:06am 20.1 WNW 8 11 1013.7 - 0.0 - Partly cloudy 5 - - - -
10/09:00am 20.0 W 8 11 1013.6 - 0.0 - Mostly clear 5 - - - -
10/08:55am 20.0 WNW 8 11 1013.7 - 0.0 - Partly cloudy 5 - - - -
10/08:30am 19.4 W 8 10 1013.8 - 0.0 - Partly cloudy 10 - - - -
10/08:00am 19.1 W 9 11 1013.7 - 0.0 - Partly cloudy 9 - - - -
10/07:30am 18.3 W 10 14 1013.6 - 0.0 - Partly cloudy 10 - - - -
10/07:00am 17.6 W 8 10 1013.5 - 0.0 - Partly cloudy 10 - - - -
10/06:30am 16.5 WNW 7 9 1013.4 - 0.0 - Partly cloudy 10 - - - -
10/06:00am 14.4 WNW 7 11 1013.3 - 0.0 - Mostly cloudy 10 - - - -
10/05:30am 13.6 NNE 4 5 1013.3 - 0.0 - Partly cloudy 10 - - - -
10/05:00am 13.1 NE 5 5 1013.4 - 0.0 - Partly cloudy 9 - - - -
10/04:30am 13.1 NE 4 4 1013.7 - 0.0 - Cloudy 9 - - - -
10/04:15am 12.7 NNE 4 5 1013.7 - 0.0 - Partly cloudy 9 - - - -
10/04:00am 12.3 NE 4 5 1013.8 - 0.0 - Partly cloudy 8 - - - -
10/03:30am 12.0 N 3 4 1014.0 - 0.0 - Partly cloudy 8 - - - -
10/03:00am 12.4 NE 4 5 1014.2 - 0.0 - - 7 - - - -
10/02:30am 13.0 NE 5 5 1014.5 - 0.0 - Partly cloudy 7 - - - -
10/02:00am 13.4 NE 4 5 1014.9 - 0.0 - - 8 - - - -
10/01:30am 13.5 NE 5 5 1015.1 - 0.0 - - 9 - - - -
10/01:09am 14.2 ENE 4 5 1015.4 - 0.0 - Partly cloudy 8 - - - -
10/01:00am 14.6 ENE 5 6 1015.5 - 0.0 - Partly cloudy 8 - - - -
10/12:30am 15.4 NE 5 5 1015.8 - 0.0 - Partly cloudy 10 - - - -
10/12:29am 15.5 NE 5 5 1015.8 - 0.0 - Partly cloudy 10 - - - -
10/12:00am 14.8 ENE 5 6 1016.2 - 0.0 - Mostly clear 9 - - - -
 
Date/Time
EDT
Temp

°C
Wind Pressure Rain
since 9am
mm
Weather Cloud Vis
km
Sea
Height
m
Swell
Dir
 
Speed
knots
Gust
knots
hPa Trend Height
m
Period
s
Dir
09/11:30pm 15.7 NNE 5 6 1016.6 - 0.0 - Partly cloudy 10 - - - -
09/11:00pm 15.3 CALM 0 4 1016.9 - 0.0 - - 10 - - - -
09/10:30pm 15.5 N 5 6 1017.2 - 0.0 - - 10 - - - -
09/10:00pm 18.0 NW 3 4 1017.4 - 0.0 - - 10 - - - -
09/09:30pm 18.2 NNE 6 7 1017.1 - 0.0 - - 10 - - - -
09/09:00pm 18.6 N 6 8 1017.0 - 0.0 - - 10 - - - -
09/08:30pm 19.6 NNE 8 10 1017.0 - 0.0 - - 10 - - - -
09/08:00pm 20.3 NNE 9 11 1017.1 - 0.0 - - 10 - - - -
09/07:30pm 21.1 NNE 10 13 1017.2 - 0.0 - - 10 - - - -
09/07:00pm 22.1 NNE 11 14 1017.3 - 0.0 - - 10 - - - -
09/06:30pm 22.5 NNE 10 15 1017.3 - 0.0 - - 10 - - - -
09/06:00pm 23.2 N 9 14 1017.4 - 0.0 - - 10 - - - -
09/05:30pm 23.5 NNE 14 18 1017.6 - 0.0 - - 10 - - - -
09/05:00pm 24.1 N 11 17 1017.9 - 0.0 - - 10 - - - -
09/04:30pm 24.4 NW 7 14 1018.2 - 0.0 - Partly cloudy 10 - - - -
09/04:00pm 24.3 N 13 19 1018.5 - 0.0 - - 10 - - - -
09/03:30pm 24.1 NNE 15 19 1018.8 - 0.0 - - 10 - - - -
09/03:00pm 24.4 N 13 19 1019.1 - 0.0 - - 10 - - - -
09/02:30pm 24.5 N 11 18 1019.3 - 0.0 - Partly cloudy 10 - - - -
09/02:00pm 24.3 NE 15 20 1019.3 - 0.0 - Partly cloudy 10 - - - -
09/01:30pm 24.1 NNE 13 19 1019.8 - 0.0 - Partly cloudy 10 - - - -
09/01:00pm 24.6 NNE 11 17 1019.9 - 0.0 - Partly cloudy 10 - - - -
09/12:30pm 24.3 N 10 15 1020.3 - 0.0 - Partly cloudy 10 - - - -
09/12:00pm 23.9 N 9 13 1020.6 - 0.0 - Mostly cloudy 10 - - - -
09/11:30am 23.5 N 11 16 1021.1 - 0.0 - Partly cloudy 10 - - - -
09/11:00am 22.3 NNE 12 16 1021.1 - 0.0 - Partly cloudy 10 - - - -
09/10:30am 21.7 NNE 11 16 1021.0 - 0.0 - Partly cloudy 10 - - - -
09/10:19am 22.1 NE 11 15 1021.0 - 0.0 - Partly cloudy 10 - - - -
09/10:00am 21.3 N 8 13 1021.0 - 0.0 - Partly cloudy 9 - - - -
09/09:30am 21.0 N 10 13 1021.0 - 0.0 - Partly cloudy 9 - - - -
09/09:08am 21.0 N 8 12 1021.0 - 0.0 - Partly cloudy 9 - - - -
09/09:00am 20.9 NNE 7 11 1021.0 - 0.0 - Mostly clear 9 - - - -
09/08:50am 20.1 NE 7 9 1020.9 - 0.0 - Partly cloudy 10 - - - -
09/08:30am 19.4 NE 7 9 1021.0 - 0.0 - Partly cloudy 10 - - - -
09/08:00am 18.4 ENE 6 8 1020.8 - 0.0 - Partly cloudy 10 - - - -
09/07:33am 17.8 NE 5 6 1020.6 - 0.0 - Partly cloudy 10 - - - -
09/07:30am 17.7 NE 5 6 1020.6 - 0.0 - Partly cloudy 10 - - - -
09/07:00am 14.1 ENE 4 5 1020.3 - 0.0 - - 9 - - - -
09/06:30am 14.7 E 4 4 1020.1 - 0.0 - - 8 - - - -
09/06:00am 15.1 E 3 4 1019.8 - 0.0 - - 8 - - - -
09/05:30am 15.3 ENE 4 5 1019.6 - 0.0 - - 8 - - - -
09/05:00am 15.3 ENE 4 5 1019.4 - 0.0 - - 8 - - - -
09/04:30am 14.7 ENE 5 5 1019.3 - 0.0 - - 9 - - - -
09/04:00am 14.5 ENE 5 7 1019.3 - 0.0 - - 9 - - - -
09/03:30am 14.6 ENE 5 5 1019.3 - 0.0 - - 9 - - - -
09/03:00am 13.4 ENE 4 6 1019.5 - 0.0 - - 10 - - - -
09/02:30am 14.5 ENE 4 5 1019.6 - 0.0 - - 10 - - - -
09/02:00am 13.4 ENE 5 6 1019.6 - 0.0 - - 9 - - - -
09/01:30am 14.1 NE 6 7 1019.8 - 0.0 - - 10 - - - -
09/01:00am 14.9 NE 8 9 1019.9 - 0.0 - - 10 - - - -
09/12:30am 14.4 ENE 6 8 1019.9 - 0.0 - - 10 - - - -
09/12:00am 14.8 ENE 6 7 1019.8 - 0.0 - - 10 - - - -
 
Date/Time
EDT
Temp

°C
Wind Pressure Rain
since 9am
mm
Weather Cloud Vis
km
Sea
Height
m
Swell
Dir
 
Speed
knots
Gust
knots
hPa Trend Height
m
Period
s
Dir
08/11:30pm 15.7 NE 6 7 1019.9 - 0.0 - - 10 - - - -
08/11:00pm 16.1 ENE 7 8 1020.0 - 0.0 - - 10 - - - -
08/10:30pm 16.2 NE 6 7 1020.1 - 0.0 - - 10 - - - -
08/10:00pm 16.6 NNE 2 5 1020.2 - 0.0 - - 10 - - - -
08/09:30pm 18.9 W 6 9 1020.0 - 0.0 - Partly cloudy 10 - - - -
08/09:00pm 19.6 W 9 12 1019.6 - 0.0 - Mostly clear 10 - - - -
08/08:30pm 19.8 W 11 14 1019.1 - 0.0 - - 10 - - - -
08/08:00pm 20.2 W 13 17 1018.9 - 0.0 - - 10 - - - -
08/07:30pm 20.8 W 14 17 1018.6 - 0.0 - - 10 - - - -
08/07:00pm 21.1 W 15 18 1018.4 - 0.0 - - 10 - - - -
08/06:30pm 21.7 W 15 17 1018.2 - 0.0 - - 10 - - - -
08/06:00pm 21.8 W 15 18 1018.0 - 0.0 - - 10 - - - -
08/05:30pm 22.0 W 17 20 1018.2 - 0.0 - - 10 - - - -
08/05:00pm 22.1 W 16 19 1018.4 - 0.0 - - 10 - - - -
08/04:30pm 22.0 WSW 17 19 1018.5 - 0.0 - Partly cloudy 10 - - - -
08/04:00pm 21.5 WSW 16 19 1018.5 - 0.0 - Partly cloudy 10 - - - -

Other Formats:

Comma delimited format used in spreadsheet applications
http://www.bom.gov.au/fwo/IDV60701/IDV60701.94980.axf

JavaScript Object Notation format (JSON) in row-major order
http://www.bom.gov.au/fwo/IDV60701/IDV60701.94980.json